Time;durP1;ratioP1;P1;durP2;ratioP2;P2;SDS_P1;SDS_P2;PMS_P1;PMS_P2;Temp;Humidity;BMP_temperature;BMP_pressure;BME280_temperature;BME280_humidity;BME280_pressure;Samples;Min_cycle;Max_cycle;Signal;HPM_P1;HPM_P2
2022/08/31 00:05:13;;;;;;;0.80;0.43;;;22.80;99.90;;;;;;5056683;28;20692;-71
2022/08/31 00:07:41;;;;;;;1.20;0.40;;;22.80;99.90;;;;;;5054003;28;20208;-71
2022/08/31 00:10:13;;;;;;;0.80;0.40;;;23.30;99.90;;;;;;5053158;28;20183;-71
2022/08/31 00:12:47;;;;;;;1.37;0.43;;;23.80;99.90;;;;;;5069783;28;20224;-70
2022/08/31 00:15:19;;;;;;;0.20;0.20;;;24.00;99.90;;;;;;5072563;28;20553;-72
2022/08/31 00:17:47;;;;;;;0.73;0.40;;;24.10;99.90;;;;;;5072804;28;20176;-71
2022/08/31 00:20:16;;;;;;;2.87;0.40;;;24.40;99.90;;;;;;5071997;28;20543;-71
2022/08/31 00:22:44;;;;;;;1.13;0.33;;;24.90;99.90;;;;;;5072907;28;20257;-72
2022/08/31 00:25:12;;;;;;;1.37;0.43;;;24.80;99.90;;;;;;5071773;28;20278;-70
2022/08/31 00:27:39;;;;;;;1.20;0.23;;;24.30;99.90;;;;;;5072666;28;20173;-71
2022/08/31 00:30:08;;;;;;;2.20;0.30;;;24.50;99.90;;;;;;5072488;28;20184;-67
2022/08/31 00:32:35;;;;;;;0.63;0.33;;;24.60;99.90;;;;;;5072634;28;20295;-70
2022/08/31 00:35:04;;;;;;;1.80;0.30;;;24.60;99.90;;;;;;5067901;28;20645;-70
2022/08/31 00:37:31;;;;;;;1.13;0.30;;;25.00;99.90;;;;;;5067700;28;20683;-69
2022/08/31 00:39:59;;;;;;;5.40;0.57;;;25.20;99.90;;;;;;5056249;28;20540;-70
2022/08/31 00:42:26;;;;;;;0.50;0.27;;;25.30;99.90;;;;;;5033805;28;20173;-71
2022/08/31 00:44:53;;;;;;;1.03;0.30;;;25.70;99.90;;;;;;5052583;28;20199;-72
2022/08/31 00:47:21;;;;;;;1.60;0.40;;;25.80;99.90;;;;;;5071924;28;20238;-70
2022/08/31 00:49:50;;;;;;;1.00;0.40;;;26.00;99.90;;;;;;5070356;28;20187;-70
2022/08/31 00:52:30;;;;;;;0.97;0.30;;;26.00;98.90;;;;;;5037942;28;20299;-71
2022/08/31 00:55:09;;;;;;;2.70;0.30;;;26.10;99.90;;;;;;5071940;28;20171;-69
2022/08/31 00:57:39;;;;;;;0.70;0.30;;;26.10;95.30;;;;;;5072029;28;20196;-69
2022/08/31 01:00:12;;;;;;;0.83;0.30;;;26.00;99.90;;;;;;5071788;28;20243;-71
2022/08/31 01:02:41;;;;;;;0.67;0.30;;;26.20;98.60;;;;;;5071627;28;20180;-72
2022/08/31 01:05:08;;;;;;;1.40;0.63;;;25.20;99.90;;;;;;5075332;28;20180;-71
2022/08/31 01:07:38;;;;;;;1.27;0.50;;;25.80;99.90;;;;;;5071566;28;20211;-70
2022/08/31 01:10:07;;;;;;;0.80;0.60;;;26.10;99.90;;;;;;5048936;28;20499;-69
2022/08/31 01:12:35;;;;;;;1.40;0.57;;;26.20;98.30;;;;;;5069632;28;20298;-70
2022/08/31 01:15:06;;;;;;;2.57;0.53;;;26.30;99.30;;;;;;5070911;28;20180;-70
2022/08/31 01:17:35;;;;;;;1.73;0.60;;;26.10;99.90;;;;;;5071808;28;20183;-72
2022/08/31 01:20:21;;;;;;;2.13;0.50;;;25.20;99.70;;;;;;5070127;28;20278;-71
2022/08/31 01:23:09;;;;;;;0.67;0.50;;;25.20;99.90;;;;;;5071515;28;20258;-70
2022/08/31 01:25:40;;;;;;;2.27;0.53;;;25.90;99.10;;;;;;5071632;28;20188;-70
2022/08/31 01:28:09;;;;;;;5.20;0.60;;;26.10;96.70;;;;;;5071784;28;20259;-70
2022/08/31 01:30:39;;;;;;;1.57;0.40;;;26.30;93.00;;;;;;5071408;28;20199;-71
2022/08/31 01:33:08;;;;;;;1.43;0.60;;;26.10;99.10;;;;;;5072051;28;20182;-72
2022/08/31 01:35:35;;;;;;;2.70;0.47;;;26.10;98.60;;;;;;5071749;28;20184;-71
2022/08/31 01:38:04;;;;;;;5.67;1.30;;;26.20;96.60;;;;;;5071306;28;20255;-69
2022/08/31 01:40:46;;;;;;;3.73;0.60;;;26.50;96.80;;;;;;5071267;28;20300;-70
2022/08/31 01:43:13;;;;;;;7.30;1.00;;;26.00;96.80;;;;;;5070484;28;20180;-70
2022/08/31 01:45:40;;;;;;;2.97;0.70;;;25.90;99.90;;;;;;5071657;28;20191;-71
2022/08/31 01:48:08;;;;;;;2.70;0.50;;;25.70;99.90;;;;;;5071558;28;20539;-69
2022/08/31 01:50:35;;;;;;;3.03;0.73;;;26.00;99.90;;;;;;5070583;28;20243;-70
2022/08/31 01:53:03;;;;;;;2.37;0.90;;;24.90;99.90;;;;;;5071210;28;20188;-71
2022/08/31 01:55:30;;;;;;;3.73;0.90;;;23.90;99.90;;;;;;5071659;28;20188;-70
2022/08/31 01:58:01;;;;;;;5.60;1.03;;;23.30;99.90;;;;;;5071563;28;20231;-71
2022/08/31 02:00:30;;;;;;;2.13;0.60;;;22.80;99.90;;;;;;5071433;28;20176;-71
2022/08/31 02:03:00;;;;;;;3.33;0.80;;;22.30;99.90;;;;;;5071457;28;20189;-70
2022/08/31 02:05:28;;;;;;;1.73;0.83;;;22.00;99.90;;;;;;5071522;28;20710;-71
2022/08/31 02:07:56;;;;;;;4.70;0.70;;;21.70;99.90;;;;;;5071487;28;20401;-70
2022/08/31 02:10:24;;;;;;;8.77;1.10;;;21.50;99.90;;;;;;5071216;28;20190;-70
2022/08/31 02:12:52;;;;;;;2.37;0.60;;;21.40;99.90;;;;;;5071635;28;20221;-71
2022/08/31 02:15:19;;;;;;;1.73;0.70;;;21.20;99.90;;;;;;5067731;28;20531;-70
2022/08/31 02:17:47;;;;;;;4.13;0.70;;;21.20;99.90;;;;;;5060464;28;20192;-71
2022/08/31 02:20:15;;;;;;;5.27;0.90;;;21.40;99.90;;;;;;5064683;28;20229;-71
2022/08/31 02:22:43;;;;;;;8.07;1.20;;;21.70;99.90;;;;;;5054137;28;20571;-71
2022/08/31 02:25:11;;;;;;;3.93;0.90;;;21.70;99.90;;;;;;5055489;28;20258;-71
2022/08/31 02:27:38;;;;;;;2.20;0.93;;;21.70;99.90;;;;;;5053926;28;20641;-71
2022/08/31 02:30:09;;;;;;;3.40;0.73;;;21.90;99.90;;;;;;5056926;28;20195;-71
2022/08/31 02:32:37;;;;;;;5.93;1.43;;;21.90;99.90;;;;;;5073714;28;20219;-70
2022/08/31 02:35:05;;;;;;;5.60;1.27;;;22.00;99.90;;;;;;5075134;28;20196;-70
2022/08/31 02:37:33;;;;;;;4.13;1.07;;;22.00;99.90;;;;;;5058063;28;20659;-70
2022/08/31 02:40:00;;;;;;;3.47;1.30;;;22.30;99.90;;;;;;5075214;28;20203;-70
2022/08/31 02:42:29;;;;;;;1.67;0.80;;;22.50;99.90;;;;;;5075188;28;20570;-70
2022/08/31 02:44:56;;;;;;;1.93;0.67;;;23.30;99.90;;;;;;5075155;28;20195;-70
2022/08/31 02:47:23;;;;;;;8.23;1.03;;;23.60;99.90;;;;;;5074569;28;20187;-70
2022/08/31 02:49:51;;;;;;;3.93;0.90;;;23.40;99.90;;;;;;5074830;28;20191;-71
2022/08/31 02:52:18;;;;;;;6.70;0.90;;;23.10;99.90;;;;;;5074824;28;20219;-71
2022/08/31 02:54:45;;;;;;;3.73;1.10;;;22.70;99.90;;;;;;5074966;28;20241;-71
2022/08/31 02:57:13;;;;;;;6.57;1.47;;;22.10;99.90;;;;;;5074058;28;20198;-70
2022/08/31 02:59:40;;;;;;;3.93;1.00;;;22.00;99.90;;;;;;5074744;28;20207;-71
2022/08/31 03:02:07;;;;;;;5.73;0.93;;;21.40;99.90;;;;;;5074688;28;20215;-71
2022/08/31 03:04:35;;;;;;;5.03;1.23;;;21.10;99.90;;;;;;5074089;28;20188;-72
2022/08/31 03:07:03;;;;;;;7.23;1.40;;;20.90;99.90;;;;;;5072534;28;20184;-71
2022/08/31 03:09:31;;;;;;;4.50;0.90;;;20.70;99.90;;;;;;5072602;28;20258;-69
2022/08/31 03:11:59;;;;;;;4.77;1.33;;;21.50;99.90;;;;;;5074102;28;20211;-72
2022/08/31 03:14:27;;;;;;;4.47;0.87;;;22.50;99.90;;;;;;5074123;28;20216;-69
2022/08/31 03:16:54;;;;;;;3.13;0.90;;;23.20;99.90;;;;;;5074040;28;20190;-73
2022/08/31 03:19:22;;;;;;;2.83;0.93;;;23.10;99.90;;;;;;5074352;28;20183;-72
2022/08/31 03:21:50;;;;;;;4.17;1.10;;;23.20;99.90;;;;;;5074421;28;20180;-69
2022/08/31 03:24:17;;;;;;;5.27;0.80;;;23.30;99.90;;;;;;5074286;28;20194;-71
2022/08/31 03:26:46;;;;;;;2.50;0.90;;;23.60;99.90;;;;;;5074228;28;20693;-71
2022/08/31 03:29:13;;;;;;;4.30;0.90;;;23.50;99.90;;;;;;5075219;28;20711;-71
2022/08/31 03:31:40;;;;;;;3.70;0.90;;;23.10;99.90;;;;;;5074187;28;20302;-70
2022/08/31 03:34:08;;;;;;;4.20;1.20;;;22.90;99.90;;;;;;5074277;28;20176;-71
2022/08/31 03:36:35;;;;;;;5.20;1.13;;;23.20;99.90;;;;;;5073862;28;20220;-71
2022/08/31 03:39:03;;;;;;;5.60;1.07;;;23.60;99.90;;;;;;5074171;28;20203;-70
2022/08/31 03:41:30;;;;;;;3.20;0.93;;;23.90;99.90;;;;;;5074158;28;20207;-71
2022/08/31 03:44:00;;;;;;;8.03;1.13;;;24.40;99.90;;;;;;5072727;28;20731;-71
2022/08/31 03:46:32;;;;;;;4.17;1.10;;;23.80;99.90;;;;;;5073859;28;20180;-69
2022/08/31 03:49:03;;;;;;;2.83;1.17;;;23.10;99.90;;;;;;5073958;28;20187;-71
2022/08/31 03:51:30;;;;;;;7.63;1.07;;;22.80;99.90;;;;;;5073675;28;20328;-69
2022/08/31 03:53:58;;;;;;;6.87;1.50;;;22.60;99.90;;;;;;5073748;28;20193;-71
2022/08/31 03:56:25;;;;;;;8.17;1.10;;;22.90;99.90;;;;;;5073944;28;20668;-68
2022/08/31 03:58:53;;;;;;;4.87;1.73;;;22.90;99.90;;;;;;5073275;28;20183;-72
2022/08/31 04:01:20;;;;;;;7.27;1.63;;;22.40;99.90;;;;;;5073279;28;20180;-71
2022/08/31 04:03:48;;;;;;;7.13;1.50;;;21.90;99.90;;;;;;5073729;28;20176;-71
2022/08/31 04:06:15;;;;;;;9.47;1.20;;;21.50;99.90;;;;;;5073439;28;20657;-72
2022/08/31 04:08:42;;;;;;;9.07;1.70;;;21.90;99.90;;;;;;5073164;28;20195;-72
2022/08/31 04:11:13;;;;;;;4.43;1.67;;;22.30;99.90;;;;;;5073444;28;20265;-71
2022/08/31 04:13:41;;;;;;;6.27;1.83;;;22.60;99.90;;;;;;5073806;28;20255;-72
2022/08/31 04:16:11;;;;;;;4.97;1.27;;;22.60;99.90;;;;;;5073221;28;20211;-70
2022/08/31 04:18:40;;;;;;;4.13;1.60;;;22.40;99.90;;;;;;5073252;28;20734;-71
2022/08/31 04:21:12;;;;;;;4.93;1.70;;;22.50;99.90;;;;;;5073122;28;20180;-72
2022/08/31 04:23:42;;;;;;;6.40;1.70;;;22.30;99.90;;;;;;5073409;28;20180;-72
2022/08/31 04:26:36;;;;;;;10.87;2.13;;;21.90;99.90;;;;;;5073112;28;20181;-72
2022/08/31 04:29:06;;;;;;;6.13;1.37;;;21.50;99.90;;;;;;5071728;28;20276;-71
2022/08/31 04:31:35;;;;;;;8.37;2.20;;;21.30;99.90;;;;;;5072968;28;20226;-70
2022/08/31 04:34:03;;;;;;;9.00;2.07;;;20.90;99.90;;;;;;5072950;28;20267;-69
2022/08/31 04:36:31;;;;;;;5.00;2.10;;;20.70;99.90;;;;;;5071712;28;20184;-69
2022/08/31 04:39:00;;;;;;;7.43;1.67;;;20.90;99.90;;;;;;5057052;28;20185;-71
2022/08/31 04:41:31;;;;;;;9.77;2.23;;;21.20;99.90;;;;;;5072983;28;20584;-72
2022/08/31 04:44:00;;;;;;;7.93;1.67;;;21.50;99.90;;;;;;5073058;28;20276;-72
2022/08/31 04:46:28;;;;;;;8.90;3.63;;;21.30;99.90;;;;;;5072760;28;20533;-71
2022/08/31 04:48:57;;;;;;;8.27;2.60;;;21.50;99.90;;;;;;5072609;28;20719;-71
2022/08/31 04:51:28;;;;;;;6.20;1.90;;;21.40;99.90;;;;;;5072137;28;20232;-69
2022/08/31 04:53:56;;;;;;;8.53;2.00;;;21.40;99.90;;;;;;5072382;28;20182;-70
2022/08/31 04:56:31;;;;;;;8.13;2.37;;;21.00;99.90;;;;;;5072365;28;20192;-71
2022/08/31 04:59:05;;;;;;;4.77;1.70;;;20.80;99.90;;;;;;5072524;28;20179;-69
2022/08/31 05:01:37;;;;;;;5.50;1.80;;;20.90;99.90;;;;;;5065212;28;20218;-73
2022/08/31 05:04:06;;;;;;;9.93;2.30;;;20.90;99.90;;;;;;5072726;28;20181;-69
2022/08/31 05:06:36;;;;;;;9.63;2.40;;;20.70;99.90;;;;;;5072421;28;20178;-71
2022/08/31 05:09:07;;;;;;;6.43;2.03;;;20.80;99.90;;;;;;5072201;28;20240;-69
2022/08/31 05:11:35;;;;;;;9.47;1.87;;;20.90;99.90;;;;;;5071906;28;20295;-70
2022/08/31 05:14:05;;;;;;;9.10;1.80;;;20.60;99.90;;;;;;5072419;28;20172;-71
2022/08/31 05:16:33;;;;;;;4.97;2.07;;;20.40;99.90;;;;;;5072173;28;20183;-75
2022/08/31 05:19:02;;;;;;;9.97;2.17;;;20.20;99.90;;;;;;5072418;28;20172;-71
2022/08/31 05:21:36;;;;;;;9.60;2.17;;;20.40;99.90;;;;;;5069801;28;20196;-71
2022/08/31 05:24:13;;;;;;;15.13;5.23;;;20.30;99.90;;;;;;5071068;28;20606;-70
2022/08/31 05:26:49;;;;;;;6.47;1.93;;;20.20;99.90;;;;;;5072035;28;20179;-71
2022/08/31 05:29:24;;;;;;;8.83;2.63;;;20.20;99.90;;;;;;5072018;28;20667;-70
2022/08/31 05:31:52;;;;;;;10.73;2.70;;;20.20;99.90;;;;;;5071571;28;20215;-71
2022/08/31 05:34:21;;;;;;;7.17;1.80;;;20.20;99.90;;;;;;5071901;28;20172;-71
2022/08/31 05:36:55;;;;;;;7.40;2.03;;;20.00;99.90;;;;;;5071830;28;20551;-73
2022/08/31 05:39:24;;;;;;;9.00;2.90;;;19.90;99.90;;;;;;5071910;28;20212;-73
2022/08/31 05:41:55;;;;;;;6.13;1.83;;;19.90;99.90;;;;;;5070141;28;20198;-70
2022/08/31 05:44:22;;;;;;;4.93;2.20;;;20.00;99.90;;;;;;5070181;28;20541;-71
2022/08/31 05:46:50;;;;;;;7.63;2.40;;;20.00;99.90;;;;;;5057653;28;20694;-71
2022/08/31 05:49:17;;;;;;;7.83;2.50;;;20.10;99.90;;;;;;5071847;28;20578;-72
2022/08/31 05:51:44;;;;;;;6.30;1.80;;;20.00;99.90;;;;;;5071466;28;20231;-72
2022/08/31 05:54:16;;;;;;;8.67;2.37;;;19.70;99.90;;;;;;5070487;28;20671;-73
2022/08/31 05:56:46;;;;;;;8.10;1.90;;;19.40;99.90;;;;;;5071309;28;20202;-70
2022/08/31 05:59:13;;;;;;;5.77;2.10;;;19.10;99.90;;;;;;5070911;28;20224;-72
2022/08/31 06:01:42;;;;;;;9.90;2.33;;;19.00;99.90;;;;;;5069734;28;20596;-72
2022/08/31 06:04:12;;;;;;;11.00;2.00;;;18.90;99.90;;;;;;5071363;28;20195;-73
2022/08/31 06:06:39;;;;;;;8.70;2.20;;;19.00;99.90;;;;;;5071930;28;20286;-72
2022/08/31 06:09:08;;;;;;;7.17;1.90;;;19.00;99.90;;;;;;5071483;28;20183;-70
2022/08/31 06:11:40;;;;;;;12.43;2.70;;;18.90;99.90;;;;;;5071338;28;20224;-71
2022/08/31 06:14:12;;;;;;;6.17;2.10;;;18.90;99.90;;;;;;5071135;28;20192;-73
2022/08/31 06:16:44;;;;;;;9.60;2.20;;;18.80;99.90;;;;;;5071104;28;20212;-69
2022/08/31 06:19:16;;;;;;;12.10;2.70;;;18.80;99.90;;;;;;5071527;28;20183;-71
2022/08/31 06:21:49;;;;;;;7.80;2.70;;;18.90;99.90;;;;;;5071317;28;20271;-71
2022/08/31 06:24:19;;;;;;;10.70;2.60;;;19.00;99.90;;;;;;5069955;28;20324;-73
2022/08/31 06:26:54;;;;;;;13.23;3.40;;;18.90;99.90;;;;;;5071295;28;20180;-71
2022/08/31 06:29:22;;;;;;;11.70;2.80;;;19.00;99.90;;;;;;5071503;28;20175;-73
2022/08/31 06:31:54;;;;;;;8.80;2.17;;;19.10;99.90;;;;;;5071474;28;20692;-73
2022/08/31 06:34:25;;;;;;;10.33;2.87;;;19.10;99.90;;;;;;5071447;28;20675;-72
2022/08/31 06:36:54;;;;;;;8.90;2.20;;;19.30;99.90;;;;;;5071105;28;20184;-69
2022/08/31 06:39:22;;;;;;;4.40;2.03;;;19.30;99.90;;;;;;5070326;28;21009;-70
2022/08/31 06:41:52;;;;;;;11.70;2.43;;;19.20;99.90;;;;;;5070823;28;20344;-70
2022/08/31 06:44:21;;;;;;;5.37;2.03;;;19.20;99.90;;;;;;5071435;28;20187;-73
2022/08/31 06:46:48;;;;;;;9.73;2.53;;;18.90;99.90;;;;;;5070299;28;20184;-71
2022/08/31 06:49:16;;;;;;;6.10;1.70;;;18.80;99.90;;;;;;5069548;28;20551;-72
2022/08/31 06:51:43;;;;;;;8.90;2.13;;;18.70;99.90;;;;;;5070555;28;20228;-70
2022/08/31 06:54:13;;;;;;;6.40;2.10;;;18.60;99.90;;;;;;5070600;28;20215;-72
2022/08/31 06:56:43;;;;;;;8.77;2.10;;;18.50;99.90;;;;;;5070918;28;20187;-72
2022/08/31 06:59:11;;;;;;;10.50;2.30;;;18.60;99.90;;;;;;5069529;28;20758;-71
2022/08/31 07:01:44;;;;;;;12.87;2.43;;;18.60;99.90;;;;;;5070441;28;20196;-70
2022/08/31 07:04:13;;;;;;;13.20;2.60;;;18.40;99.90;;;;;;5070059;28;20229;-70
2022/08/31 07:06:43;;;;;;;11.80;2.30;;;18.30;99.90;;;;;;5069496;28;20192;-73
2022/08/31 07:09:17;;;;;;;9.30;2.67;;;18.10;99.90;;;;;;5071385;28;20173;-72
2022/08/31 07:11:51;;;;;;;14.63;2.77;;;18.00;99.90;;;;;;5074060;28;20568;-71
2022/08/31 07:14:26;;;;;;;11.23;2.20;;;17.90;99.90;;;;;;5074808;28;20254;-71
2022/08/31 07:16:58;;;;;;;7.43;2.40;;;17.80;99.90;;;;;;5073227;28;20295;-71
2022/08/31 07:19:27;;;;;;;14.57;3.70;;;17.60;99.90;;;;;;5074658;28;20551;-72
2022/08/31 07:21:57;;;;;;;10.60;2.57;;;17.60;99.90;;;;;;5074309;28;20249;-72
2022/08/31 07:24:32;;;;;;;12.50;2.73;;;17.50;99.90;;;;;;5073983;28;20521;-71
2022/08/31 07:27:08;;;;;;;9.03;2.43;;;17.40;99.90;;;;;;5047366;28;20681;-72
2022/08/31 07:29:40;;;;;;;14.47;3.10;;;17.30;99.90;;;;;;5034611;28;20543;-71
2022/08/31 07:32:09;;;;;;;14.63;2.80;;;17.20;99.90;;;;;;5051315;28;20200;-68
2022/08/31 07:34:37;;;;;;;7.50;2.40;;;17.10;99.90;;;;;;5074321;28;20176;-68
2022/08/31 07:42:42;;;;;;;12.77;3.37;;;16.80;99.90;;;;;;5073517;28;20566;-67
2022/08/31 07:45:23;;;;;;;8.80;2.53;;;16.80;99.90;;;;;;5058138;28;20215;-68
2022/08/31 07:47:55;;;;;;;16.00;3.60;;;16.70;99.90;;;;;;5053769;28;20193;-67
2022/08/31 07:50:23;;;;;;;15.30;3.17;;;16.70;99.90;;;;;;5053571;28;20256;-72
2022/08/31 07:52:54;;;;;;;14.93;3.23;;;16.70;99.90;;;;;;5053912;28;20709;-70
2022/08/31 07:55:26;;;;;;;14.47;2.93;;;16.60;99.90;;;;;;5053898;28;20180;-71
2022/08/31 07:57:55;;;;;;;14.27;2.67;;;16.50;99.90;;;;;;5052315;28;20188;-71
2022/08/31 08:00:26;;;;;;;13.67;3.07;;;16.50;99.90;;;;;;5053807;28;20180;-69
2022/08/31 08:03:00;;;;;;;10.00;2.53;;;16.40;99.90;;;;;;5053850;28;20173;-68
2022/08/31 08:05:30;;;;;;;19.20;3.43;;;16.40;99.90;;;;;;5053638;28;20183;-67
2022/08/31 08:08:04;;;;;;;17.23;3.03;;;16.30;99.90;;;;;;5053243;28;20173;-69
2022/08/31 08:10:34;;;;;;;19.30;3.27;;;16.30;99.90;;;;;;5052652;28;20593;-71
2022/08/31 08:13:02;;;;;;;13.10;2.60;;;16.30;99.90;;;;;;5071301;28;20232;-68
2022/08/31 08:15:32;;;;;;;8.93;2.70;;;16.20;99.90;;;;;;5073324;28;20259;-70
2022/08/31 08:18:02;;;;;;;13.77;3.20;;;16.10;99.90;;;;;;5046448;28;20180;-71
2022/08/31 08:20:29;;;;;;;8.40;2.93;;;16.10;99.90;;;;;;5072857;28;20168;-70
2022/08/31 08:22:57;;;;;;;14.17;3.07;;;16.10;99.90;;;;;;5073145;28;20581;-71
2022/08/31 08:25:24;;;;;;;16.63;3.03;;;16.10;99.90;;;;;;5073279;28;20262;-72
2022/08/31 08:27:55;;;;;;;18.03;2.83;;;16.10;99.90;;;;;;5072565;28;20184;-68
2022/08/31 08:30:24;;;;;;;6.30;2.27;;;16.10;99.90;;;;;;5071737;28;20188;-68
2022/08/31 08:32:53;;;;;;;6.93;2.50;;;16.00;99.90;;;;;;5073174;28;20677;-68
2022/08/31 08:35:22;;;;;;;8.67;3.10;;;16.00;99.90;;;;;;5072898;28;20172;-69
2022/08/31 08:37:49;;;;;;;9.37;2.67;;;16.00;99.90;;;;;;5071866;28;20195;-68
2022/08/31 08:40:35;;;;;;;12.90;2.17;;;15.90;99.90;;;;;;5072719;28;20195;-68
2022/08/31 08:43:04;;;;;;;7.13;2.43;;;15.90;99.90;;;;;;5070449;28;20211;-71
2022/08/31 08:45:33;;;;;;;6.97;2.03;;;15.90;99.90;;;;;;5071822;28;20233;-72
2022/08/31 08:48:01;;;;;;;7.40;2.30;;;15.90;99.90;;;;;;5072049;28;20676;-72
2022/08/31 08:50:30;;;;;;;8.43;2.27;;;15.80;99.90;;;;;;5075497;28;20247;-70
2022/08/31 08:53:04;;;;;;;8.53;2.57;;;15.80;99.90;;;;;;5073699;28;20227;-76
2022/08/31 08:55:37;;;;;;;9.73;2.20;;;15.80;99.90;;;;;;5038504;28;20186;-70
2022/08/31 08:58:09;;;;;;;6.07;2.00;;;15.70;99.90;;;;;;5074534;28;20253;-75
2022/08/31 09:00:37;;;;;;;7.97;2.50;;;15.70;99.90;;;;;;5056527;28;20191;-71
2022/08/31 09:03:43;;;;;;;6.60;2.37;;;15.70;99.90;;;;;;5034158;28;20182;-66
2022/08/31 09:06:30;;;;;;;10.20;2.50;;;15.60;99.90;;;;;;5052004;28;20198;-72
2022/08/31 09:08:58;;;;;;;8.73;2.37;;;15.60;99.90;;;;;;5052741;28;20247;-72
2022/08/31 09:11:40;;;;;;;7.13;2.43;;;15.70;99.90;;;;;;5060253;28;20212;-71
2022/08/31 09:14:32;;;;;;;6.87;2.30;;;15.70;99.90;;;;;;5071799;28;21127;-71
2022/08/31 09:17:23;;;;;;;7.10;2.30;;;15.80;99.90;;;;;;5056685;28;20596;-72
2022/08/31 09:20:04;;;;;;;9.67;2.80;;;15.70;99.90;;;;;;5072103;28;20674;-68
2022/08/31 09:22:45;;;;;;;8.57;2.20;;;15.80;99.90;;;;;;5072191;28;20196;-68
2022/08/31 09:25:27;;;;;;;8.07;2.10;;;15.80;99.90;;;;;;5072148;28;20180;-71
2022/08/31 09:28:03;;;;;;;12.20;2.67;;;15.90;99.90;;;;;;5071769;28;20676;-68
2022/08/31 09:30:50;;;;;;;13.73;3.30;;;15.90;99.90;;;;;;5072240;28;20175;-68
2022/08/31 09:33:26;;;;;;;10.33;2.50;;;15.90;99.90;;;;;;5069962;28;20303;-71
2022/08/31 09:36:22;;;;;;;20.17;9.57;;;15.90;99.90;;;;;;5054248;28;20186;-69
2022/08/31 09:39:18;;;;;;;13.83;3.10;;;15.90;99.90;;;;;;5053307;28;20192;-67
2022/08/31 09:41:51;;;;;;;14.57;4.60;;;15.90;99.90;;;;;;5052050;28;20184;-71
2022/08/31 09:44:27;;;;;;;15.37;2.80;;;15.80;99.90;;;;;;5052100;28;20492;-72
2022/08/31 09:47:01;;;;;;;10.60;3.63;;;15.80;99.90;;;;;;5051798;28;20188;-68
2022/08/31 09:49:37;;;;;;;14.80;3.20;;;15.90;99.90;;;;;;5052135;28;20592;-68
2022/08/31 09:52:20;;;;;;;11.27;3.13;;;15.90;99.90;;;;;;5066663;28;20704;-67
2022/08/31 09:55:13;;;;;;;12.80;3.00;;;15.90;99.90;;;;;;5069917;28;20196;-69
2022/08/31 09:57:52;;;;;;;17.57;2.87;;;15.80;99.90;;;;;;5072006;28;20202;-69
2022/08/31 10:00:40;;;;;;;12.97;3.70;;;15.80;99.90;;;;;;5032063;28;20254;-69
2022/08/31 10:03:20;;;;;;;11.33;2.50;;;15.80;99.90;;;;;;5032006;28;20289;-71
2022/08/31 10:05:53;;;;;;;9.60;2.70;;;15.80;99.90;;;;;;5064022;28;20188;-71
2022/08/31 10:08:56;;;;;;;10.63;2.77;;;15.80;99.90;;;;;;5071498;28;20176;-72
2022/08/31 10:11:30;;;;;;;15.77;3.37;;;15.80;99.90;;;;;;5071285;28;20816;-72
2022/08/31 10:14:15;;;;;;;13.73;3.27;;;15.70;99.90;;;;;;5070370;28;20212;-71
2022/08/31 10:16:48;;;;;;;14.63;3.20;;;15.80;99.90;;;;;;5070355;28;20187;-72
2022/08/31 10:19:32;;;;;;;19.20;3.60;;;15.80;99.90;;;;;;5069781;28;20652;-69
2022/08/31 10:22:22;;;;;;;13.87;3.83;;;15.70;99.90;;;;;;5071062;28;20190;-68
2022/08/31 10:25:20;;;;;;;11.83;3.50;;;15.70;99.90;;;;;;5070342;28;20198;-68
2022/08/31 10:28:10;;;;;;;15.77;2.73;;;15.80;99.90;;;;;;5071071;28;20185;-68
2022/08/31 10:31:06;;;;;;;14.20;3.10;;;15.70;99.90;;;;;;5070022;28;20195;-68
2022/08/31 10:36:32;;;;;;;14.57;3.13;;;15.70;99.90;;;;;;5044691;28;20688;-69
2022/08/31 10:39:00;;;;;;;11.60;3.13;;;15.70;99.90;;;;;;5070874;28;20426;-68
2022/08/31 10:41:37;;;;;;;8.00;2.77;;;15.70;99.90;;;;;;5069967;28;20219;-69
2022/08/31 10:44:27;;;;;;;17.47;3.53;;;15.60;99.90;;;;;;5071825;28;20176;-69
2022/08/31 10:47:01;;;;;;;13.57;3.43;;;15.70;99.90;;;;;;5073674;28;20192;-68
2022/08/31 10:49:38;;;;;;;10.90;2.50;;;15.70;99.90;;;;;;5074955;28;20190;-69
2022/08/31 10:52:28;;;;;;;12.80;3.23;;;15.70;99.90;;;;;;5073279;28;20392;-71
2022/08/31 10:55:13;;;;;;;13.97;2.87;;;15.70;99.90;;;;;;5073206;28;20196;-70
2022/08/31 10:58:22;;;;;;;10.13;3.17;;;15.70;99.90;;;;;;5074809;28;20195;-71
2022/08/31 11:01:27;;;;;;;14.43;3.07;;;15.70;99.90;;;;;;5074736;28;20175;-69
2022/08/31 11:04:17;;;;;;;15.90;3.20;;;15.70;99.90;;;;;;5066846;28;20211;-68
2022/08/31 11:07:16;;;;;;;11.17;2.67;;;15.80;99.90;;;;;;5073296;28;20176;-70
2022/08/31 11:10:38;;;;;;;12.57;3.20;;;15.80;99.90;;;;;;5071532;28;20207;-68
2022/08/31 11:13:15;;;;;;;14.47;3.23;;;15.80;99.90;;;;;;5073071;28;20220;-71
2022/08/31 11:16:16;;;;;;;12.73;3.83;;;15.80;99.90;;;;;;5074226;28;20563;-71
2022/08/31 11:18:59;;;;;;;12.30;3.20;;;15.80;99.90;;;;;;5073168;28;20676;-72
2022/08/31 11:21:40;;;;;;;15.13;3.50;;;15.80;99.90;;;;;;5074272;28;20172;-71
2022/08/31 11:24:32;;;;;;;15.30;3.97;;;15.80;99.90;;;;;;5075403;28;20184;-71
2022/08/31 11:27:10;;;;;;;18.30;5.33;;;15.80;99.90;;;;;;5075348;28;20179;-70
2022/08/31 11:29:55;;;;;;;13.37;3.57;;;15.80;99.90;;;;;;5075215;28;20194;-71
2022/08/31 11:32:40;;;;;;;14.97;3.20;;;15.80;99.90;;;;;;5074968;28;20211;-71
2022/08/31 11:35:09;;;;;;;14.10;3.27;;;15.80;99.90;;;;;;5075723;28;20187;-71
2022/08/31 11:37:51;;;;;;;13.03;3.23;;;15.80;99.90;;;;;;5075647;28;20240;-68
2022/08/31 11:40:44;;;;;;;8.73;2.97;;;15.80;99.90;;;;;;5075961;28;20168;-70
2022/08/31 11:43:31;;;;;;;14.53;3.03;;;15.80;99.90;;;;;;5076003;28;20597;-72
2022/08/31 11:46:27;;;;;;;13.17;3.00;;;15.80;99.90;;;;;;5075240;28;20233;-70
2022/08/31 11:48:54;;;;;;;12.00;3.17;;;15.80;99.90;;;;;;5076195;28;20175;-69
2022/08/31 11:51:35;;;;;;;11.80;3.13;;;15.80;99.90;;;;;;5075105;28;20314;-69
2022/08/31 11:54:10;;;;;;;13.50;2.83;;;15.80;99.90;;;;;;5074681;28;20178;-70
2022/08/31 11:56:44;;;;;;;14.37;2.60;;;15.80;99.90;;;;;;5074780;28;20258;-69
2022/08/31 11:59:33;;;;;;;14.17;3.77;;;15.80;99.90;;;;;;5075435;28;20581;-70
2022/08/31 12:02:24;;;;;;;16.23;3.77;;;15.80;99.90;;;;;;5075667;28;20589;-70
2022/08/31 12:04:59;;;;;;;13.37;2.60;;;15.80;99.90;;;;;;5074334;28;20541;-68
2022/08/31 12:07:29;;;;;;;18.73;3.60;;;15.80;99.90;;;;;;5074850;28;20183;-70
2022/08/31 12:10:17;;;;;;;12.50;2.90;;;15.80;99.90;;;;;;5075135;28;20671;-69
2022/08/31 12:13:17;;;;;;;16.90;3.20;;;15.70;99.90;;;;;;5075435;28;20222;-72
2022/08/31 12:16:08;;;;;;;11.83;3.17;;;15.70;99.90;;;;;;5074534;28;20179;-68
2022/08/31 12:19:00;;;;;;;13.57;2.77;;;15.60;99.90;;;;;;5074450;28;20655;-68
2022/08/31 12:25:02;;;;;;;11.53;2.87;;;15.50;99.90;;;;;;5071770;28;20220;-68
2022/08/31 12:27:40;;;;;;;13.83;3.20;;;15.40;99.90;;;;;;5074539;28;20176;-70
2022/08/31 12:30:24;;;;;;;13.87;3.20;;;15.40;99.90;;;;;;5038116;28;20205;-69
2022/08/31 12:33:03;;;;;;;12.13;3.27;;;15.40;99.90;;;;;;5074573;28;20203;-68
2022/08/31 12:35:32;;;;;;;15.33;3.03;;;15.40;99.90;;;;;;5074306;28;20175;-70
2022/08/31 12:38:09;;;;;;;14.87;3.10;;;15.40;99.90;;;;;;5073219;28;20187;-68
2022/08/31 12:40:53;;;;;;;13.13;3.23;;;15.30;99.90;;;;;;5074383;28;20182;-68
2022/08/31 12:43:26;;;;;;;13.67;3.10;;;15.30;99.90;;;;;;5074236;28;20641;-71
2022/08/31 12:46:03;;;;;;;20.90;3.33;;;15.20;99.90;;;;;;5073933;28;20183;-67
2022/08/31 12:48:33;;;;;;;10.40;2.20;;;15.10;99.90;;;;;;5074193;28;20557;-72
2022/08/31 12:51:11;;;;;;;14.73;2.90;;;15.10;99.90;;;;;;5073970;28;20222;-67
2022/08/31 12:54:14;;;;;;;18.97;4.07;;;15.00;99.90;;;;;;5073825;28;20661;-67
2022/08/31 12:56:51;;;;;;;14.20;3.30;;;15.00;99.90;;;;;;5032980;28;20719;-68
2022/08/31 12:59:46;;;;;;;16.20;3.27;;;14.90;99.90;;;;;;5034326;28;20252;-67
2022/08/31 13:02:14;;;;;;;15.17;2.90;;;14.90;99.90;;;;;;5034467;28;20173;-69
2022/08/31 13:04:47;;;;;;;16.60;3.73;;;14.90;99.90;;;;;;5047741;28;20269;-68
2022/08/31 13:07:31;;;;;;;9.63;2.63;;;14.90;99.90;;;;;;5073490;28;20657;-68
2022/08/31 13:10:12;;;;;;;11.23;3.13;;;14.90;99.90;;;;;;5033807;28;20177;-72
2022/08/31 13:12:47;;;;;;;11.50;3.40;;;14.90;99.90;;;;;;5070563;28;20272;-72
2022/08/31 13:15:22;;;;;;;14.07;3.50;;;14.90;99.90;;;;;;5072956;28;20178;-73
2022/08/31 13:17:52;;;;;;;8.63;2.60;;;14.80;99.90;;;;;;5073480;28;20180;-71
2022/08/31 13:20:21;;;;;;;14.60;4.40;;;14.80;99.90;;;;;;5073393;28;20645;-72
2022/08/31 13:23:04;;;;;;;8.17;2.70;;;14.80;99.90;;;;;;5073528;28;20176;-72
2022/08/31 13:25:35;;;;;;;13.90;3.57;;;14.80;99.90;;;;;;5073398;28;20188;-72
2022/08/31 13:28:31;;;;;;;14.67;3.43;;;14.80;99.90;;;;;;5073548;28;20187;-72
2022/08/31 13:31:04;;;;;;;17.60;3.43;;;14.80;99.90;;;;;;5073416;28;20262;-71
2022/08/31 13:33:38;;;;;;;10.73;3.20;;;14.80;99.90;;;;;;5073284;28;20187;-72